createdAt,value
2022-08-04T00:00:09.434Z,7.45
2022-08-04T00:02:50.026Z,6.15
2022-08-04T00:05:30.925Z,7.05
2022-08-04T00:08:08.349Z,5.57
2022-08-04T00:10:37.765Z,10.15
2022-08-04T00:13:06.694Z,10.85
2022-08-04T00:15:36.553Z,9.00
2022-08-04T00:18:06.411Z,7.63
2022-08-04T00:20:40.924Z,5.65
2022-08-04T00:23:09.907Z,7.05
2022-08-04T00:25:41.747Z,9.88
2022-08-04T00:28:10.329Z,6.70
2022-08-04T00:30:38.668Z,9.60
2022-08-04T00:33:07.559Z,5.05
2022-08-04T00:35:39.779Z,6.95
2022-08-04T00:38:09.793Z,6.22
2022-08-04T00:40:49.127Z,8.73
2022-08-04T00:43:25.212Z,9.93
2022-08-04T00:46:25.629Z,5.78
2022-08-04T00:49:25.777Z,5.60
2022-08-04T00:52:33.443Z,6.82
2022-08-04T00:55:09.081Z,8.95
2022-08-04T00:57:51.214Z,6.63
2022-08-04T01:00:20.469Z,7.82
2022-08-04T01:03:04.005Z,6.50
2022-08-04T01:05:40.497Z,7.18
2022-08-04T01:08:28.710Z,9.20
2022-08-04T01:11:05.155Z,4.55
2022-08-04T01:13:52.204Z,8.88
2022-08-04T01:16:26.258Z,6.80
2022-08-04T01:19:01.086Z,6.25
2022-08-04T01:22:00.724Z,5.30
2022-08-04T01:24:50.926Z,6.90
2022-08-04T01:27:30.771Z,7.65
2022-08-04T01:30:04.240Z,7.32
2022-08-04T01:32:37.570Z,7.78
2022-08-04T01:35:15.280Z,8.57
2022-08-04T01:37:56.955Z,6.10
2022-08-04T01:40:29.412Z,9.23
2022-08-04T01:43:01.668Z,9.98
2022-08-04T01:45:32.883Z,8.95
2022-08-04T01:48:05.349Z,5.47
2022-08-04T01:50:36.664Z,7.35
2022-08-04T01:53:05.633Z,8.05
2022-08-04T01:55:54.421Z,7.40
2022-08-04T01:58:25.123Z,9.77
2022-08-04T02:00:59.868Z,8.85
2022-08-04T02:04:20.160Z,9.65
2022-08-04T02:06:28.479Z,10.77
2022-08-04T02:09:05.364Z,8.18
2022-08-04T02:11:33.474Z,4.07
2022-08-04T02:14:12.624Z,8.45
2022-08-04T02:16:52.788Z,12.70
2022-08-04T02:19:31.382Z,6.97
2022-08-04T02:22:08.100Z,7.60
2022-08-04T02:24:44.423Z,7.45
2022-08-04T02:27:14.862Z,10.35
2022-08-04T02:29:52.702Z,11.32
2022-08-04T02:32:26.956Z,5.78
2022-08-04T02:35:04.905Z,7.15
2022-08-04T02:37:33.848Z,7.00
2022-08-04T02:40:05.856Z,7.93
2022-08-04T02:42:35.187Z,8.75
2022-08-04T02:45:04.645Z,5.50
2022-08-04T02:48:30.697Z,11.18
2022-08-04T02:50:28.518Z,8.57
2022-08-04T02:52:59.323Z,5.55
2022-08-04T02:55:28.471Z,9.07
2022-08-04T02:57:59.450Z,7.95
2022-08-04T03:00:27.897Z,6.55
2022-08-04T03:03:07.332Z,11.93
2022-08-04T03:05:51.909Z,6.13
2022-08-04T03:09:01.876Z,11.07
2022-08-04T03:12:07.227Z,6.30
2022-08-04T03:15:16.675Z,5.97
2022-08-04T03:18:39.022Z,6.88
2022-08-04T03:21:23.774Z,9.82
2022-08-04T03:24:26.409Z,8.63
2022-08-04T03:27:12.619Z,7.50
2022-08-04T03:30:08.519Z,11.20
2022-08-04T03:33:13.043Z,6.72
2022-08-04T03:36:04.242Z,10.52
2022-08-04T03:38:59.766Z,5.85
2022-08-04T03:42:15.928Z,9.77
2022-08-04T03:45:24.053Z,5.57
2022-08-04T03:48:24.801Z,10.55
2022-08-04T03:51:35.204Z,9.55
2022-08-04T03:54:32.320Z,13.65
2022-08-04T03:57:33.291Z,8.35
2022-08-04T04:00:09.016Z,7.95
2022-08-04T04:03:11.990Z,11.85
2022-08-04T04:06:36.184Z,6.90
2022-08-04T04:09:58.134Z,11.30
2022-08-04T04:12:50.914Z,7.63
2022-08-04T04:15:50.072Z,11.98
2022-08-04T04:18:31.776Z,10.68
2022-08-04T04:21:25.771Z,15.23
2022-08-04T04:24:26.252Z,7.88
2022-08-04T04:27:14.459Z,9.77
2022-08-04T04:30:05.016Z,10.18
2022-08-04T04:33:00.114Z,8.25
2022-08-04T04:35:36.759Z,8.57
2022-08-04T04:38:22.574Z,8.55
2022-08-04T04:41:05.256Z,14.80
2022-08-04T04:43:52.971Z,9.32
2022-08-04T04:46:33.260Z,10.05
2022-08-04T04:49:12.457Z,10.52
2022-08-04T04:51:44.987Z,14.05
2022-08-04T04:54:38.184Z,11.00
2022-08-04T04:57:12.748Z,6.88
2022-08-04T04:59:50.260Z,8.70
2022-08-04T05:02:37.907Z,7.55
2022-08-04T05:05:22.575Z,13.15
2022-08-04T05:08:43.204Z,6.43
2022-08-04T05:11:05.685Z,11.48
2022-08-04T05:14:34.915Z,10.65
2022-08-04T05:16:33.466Z,10.77
2022-08-04T05:19:16.284Z,14.07
2022-08-04T05:21:48.986Z,10.10
2022-08-04T05:24:21.788Z,8.43
2022-08-04T05:26:53.588Z,10.98
2022-08-04T05:29:30.986Z,10.32
2022-08-04T05:32:06.875Z,6.93
2022-08-04T05:34:42.290Z,8.57
2022-08-04T05:37:12.994Z,11.48
2022-08-04T05:39:47.229Z,12.10
2022-08-04T05:42:16.577Z,12.55
2022-08-04T05:44:50.943Z,13.40
2022-08-04T05:47:22.781Z,8.93
2022-08-04T05:49:55.712Z,8.95
2022-08-04T05:52:31.538Z,8.52
2022-08-04T05:55:00.683Z,7.22
2022-08-04T05:57:29.592Z,11.18
2022-08-04T05:59:59.967Z,12.32
2022-08-04T06:02:31.655Z,8.85
2022-08-04T06:05:02.261Z,14.30
2022-08-04T06:07:30.563Z,11.25
2022-08-04T06:09:58.668Z,7.75
2022-08-04T06:12:31.748Z,13.55
2022-08-04T06:15:01.715Z,7.13
2022-08-04T06:18:33.367Z,8.60
2022-08-04T06:20:34.469Z,9.13
2022-08-04T06:23:05.764Z,6.68
2022-08-04T06:25:35.323Z,7.63
2022-08-04T06:28:06.956Z,7.60
2022-08-04T06:30:37.236Z,4.32
2022-08-04T06:33:24.393Z,7.55
2022-08-04T06:35:55.348Z,8.90
2022-08-04T06:38:25.105Z,7.15
2022-08-04T06:40:54.411Z,7.43
2022-08-04T06:43:23.801Z,4.30
2022-08-04T06:45:55.979Z,5.93
2022-08-04T06:48:31.641Z,6.20
2022-08-04T06:51:32.185Z,6.05
2022-08-04T06:53:50.829Z,12.32
2022-08-04T06:56:20.124Z,5.28
2022-08-04T06:58:49.019Z,6.43
2022-08-04T07:01:19.165Z,7.05
2022-08-04T07:03:50.650Z,8.65
2022-08-04T07:06:19.182Z,8.43
2022-08-04T07:08:47.559Z,5.20
2022-08-04T07:11:16.415Z,6.50
2022-08-04T07:13:45.495Z,6.47
2022-08-04T07:16:15.784Z,4.40
2022-08-04T07:18:43.944Z,4.70
2022-08-04T07:21:23.811Z,5.03
2022-08-04T07:23:55.036Z,4.25
2022-08-04T07:26:28.626Z,5.75
2022-08-04T07:28:57.123Z,5.25
2022-08-04T07:31:33.688Z,4.78
2022-08-04T07:34:17.334Z,5.63
2022-08-04T07:36:55.149Z,4.72
2022-08-04T07:39:28.279Z,5.90
2022-08-04T07:41:59.221Z,3.90
2022-08-04T07:44:29.363Z,4.40
2022-08-04T07:46:57.637Z,7.40
2022-08-04T07:49:56.301Z,7.60
2022-08-04T07:52:16.878Z,5.97
2022-08-04T07:54:45.794Z,4.43
2022-08-04T07:57:20.628Z,8.77
2022-08-04T08:00:02.127Z,4.82
2022-08-04T08:02:30.674Z,7.88
2022-08-04T08:04:59.098Z,3.78
2022-08-04T08:07:29.199Z,7.50
2022-08-04T08:09:57.348Z,5.00
2022-08-04T08:12:38.551Z,4.78
2022-08-04T08:15:15.941Z,6.47
2022-08-04T08:17:57.773Z,5.45
2022-08-04T08:20:30.458Z,5.50
2022-08-04T08:23:00.591Z,5.65
2022-08-04T08:25:31.688Z,11.57
2022-08-04T08:28:00.060Z,4.13
2022-08-04T08:30:31.750Z,5.28
2022-08-04T08:33:05.474Z,6.43
2022-08-04T08:35:53.309Z,6.70
2022-08-04T08:38:33.327Z,6.03
2022-08-04T08:41:20.841Z,8.57
2022-08-04T08:44:07.630Z,7.05
2022-08-04T08:46:51.970Z,5.38
2022-08-04T08:50:02.076Z,5.95
2022-08-04T08:53:01.220Z,14.25
2022-08-04T08:55:43.950Z,15.13
2022-08-04T08:58:32.464Z,14.75
2022-08-04T09:01:09.279Z,10.45
2022-08-04T09:03:51.615Z,11.43
2022-08-04T09:06:42.473Z,16.98
2022-08-04T09:09:41.332Z,10.70
2022-08-04T09:12:19.161Z,11.10
2022-08-04T09:15:05.455Z,14.35
2022-08-04T09:17:42.163Z,12.10
2022-08-04T09:20:17.493Z,14.27
2022-08-04T09:22:52.153Z,13.10
2022-08-04T09:25:25.257Z,23.08
2022-08-04T09:27:56.543Z,17.77
2022-08-04T09:30:30.380Z,16.40
2022-08-04T09:33:12.371Z,21.45
2022-08-04T09:35:53.535Z,9.65
2022-08-04T09:38:28.844Z,9.75
2022-08-04T09:41:04.686Z,9.85
2022-08-04T09:44:49.170Z,7.82
2022-08-04T09:46:59.653Z,10.65
2022-08-04T09:49:34.868Z,9.85
2022-08-04T09:52:10.954Z,5.28
2022-08-04T09:54:48.330Z,8.20
2022-08-04T09:57:31.259Z,14.05
2022-08-04T10:00:05.744Z,15.73
2022-08-04T10:02:37.093Z,10.75
2022-08-04T10:05:10.256Z,6.65
2022-08-04T10:08:15.778Z,7.53
2022-08-04T10:10:53.391Z,9.63
2022-08-04T10:13:27.781Z,5.32
2022-08-04T10:16:13.060Z,4.60
2022-08-04T10:18:50.915Z,4.88
2022-08-04T10:21:26.807Z,6.25
2022-08-04T10:24:20.955Z,9.63
2022-08-04T10:26:57.334Z,3.88
2022-08-04T10:29:32.153Z,4.20
2022-08-04T10:32:10.671Z,9.55
2022-08-04T10:34:44.444Z,8.48
2022-08-04T10:37:21.406Z,6.93
2022-08-04T10:40:15.443Z,6.57
2022-08-04T10:42:51.580Z,10.68
2022-08-04T10:45:24.783Z,6.65
2022-08-04T10:48:01.300Z,7.35
2022-08-04T10:50:32.792Z,13.38
2022-08-04T10:53:08.648Z,9.43
2022-08-04T10:56:06.374Z,5.15
2022-08-04T10:58:48.154Z,6.63
2022-08-04T11:02:00.212Z,5.35
2022-08-04T11:04:27.148Z,4.57
2022-08-04T11:06:57.434Z,5.70
2022-08-04T11:09:25.701Z,5.20
2022-08-04T11:12:01.407Z,5.57
2022-08-04T11:14:37.634Z,5.13
2022-08-04T11:17:12.202Z,4.22
2022-08-04T11:19:53.213Z,2.88
2022-08-04T11:22:27.442Z,7.00
2022-08-04T11:25:05.252Z,6.05
2022-08-04T11:27:41.677Z,6.00
2022-08-04T11:30:13.724Z,6.05
2022-08-04T11:32:47.267Z,4.90
2022-08-04T11:35:28.723Z,3.85
2022-08-04T11:38:05.830Z,4.20
2022-08-04T11:40:39.067Z,4.93
2022-08-04T11:43:13.280Z,6.32
2022-08-04T11:45:48.663Z,5.05
2022-08-04T11:48:21.487Z,6.45
2022-08-04T11:50:54.249Z,3.95
2022-08-04T11:53:26.577Z,5.05
2022-08-04T11:56:11.297Z,5.88
2022-08-04T11:58:41.435Z,3.65
2022-08-04T12:01:27.655Z,4.80
2022-08-04T12:04:04.774Z,5.45
2022-08-04T12:06:54.021Z,3.72
2022-08-04T12:09:36.319Z,9.02
2022-08-04T12:12:13.634Z,10.05
2022-08-04T12:14:50.886Z,5.95
2022-08-04T12:17:26.535Z,4.82
2022-08-04T12:20:31.585Z,3.67
2022-08-04T12:22:56.550Z,8.13
2022-08-04T12:25:33.508Z,10.15
2022-08-04T12:28:07.260Z,9.73
2022-08-04T12:30:58.483Z,14.07
2022-08-04T12:34:03.094Z,11.90
2022-08-04T12:36:32.783Z,10.32
2022-08-04T12:39:10.480Z,9.63
2022-08-04T12:41:43.407Z,9.05
2022-08-04T12:44:36.294Z,12.70
2022-08-04T12:47:26.334Z,9.50
2022-08-04T12:50:00.570Z,9.45
2022-08-04T12:55:23.191Z,9.02
2022-08-04T12:57:52.668Z,9.02
2022-08-04T13:00:40.665Z,7.85
2022-08-04T13:03:13.462Z,9.60
2022-08-04T13:05:43.556Z,9.85
2022-08-04T13:08:13.650Z,11.77
2022-08-04T13:10:47.014Z,12.00
2022-08-04T13:13:21.014Z,11.15
2022-08-04T13:16:00.244Z,10.77
2022-08-04T13:18:32.316Z,13.15
2022-08-04T13:21:19.856Z,11.88
2022-08-04T13:24:09.372Z,7.47
2022-08-04T13:26:54.870Z,8.07
2022-08-04T13:29:58.021Z,10.90
2022-08-04T13:32:18.550Z,6.78
2022-08-04T13:34:49.612Z,6.88
2022-08-04T13:37:26.562Z,12.88
2022-08-04T13:39:58.653Z,10.48
2022-08-04T13:42:29.227Z,10.27
2022-08-04T13:45:00.658Z,7.38
2022-08-04T13:47:31.468Z,6.75
2022-08-04T13:50:20.538Z,8.90
2022-08-04T13:52:48.763Z,8.15
2022-08-04T13:55:29.405Z,7.93
2022-08-04T13:58:03.410Z,8.35
2022-08-04T14:00:48.472Z,11.35
2022-08-04T14:03:31.765Z,19.98
2022-08-04T14:06:21.347Z,29.33
2022-08-04T14:08:55.239Z,41.30
2022-08-04T14:12:08.841Z,88.57
2022-08-04T14:14:24.598Z,149.25
2022-08-04T14:17:03.395Z,136.07
2022-08-04T14:19:55.609Z,26.45
2022-08-04T14:22:33.156Z,19.38
2022-08-04T14:25:04.190Z,14.30
2022-08-04T14:27:42.578Z,11.23
2022-08-04T14:30:24.688Z,8.20
2022-08-04T14:32:57.803Z,10.70
2022-08-04T14:35:38.306Z,9.65
2022-08-04T14:38:14.486Z,8.93
2022-08-04T14:40:44.150Z,11.30
2022-08-04T14:43:12.243Z,10.38
2022-08-04T14:45:54.406Z,9.55
2022-08-04T14:48:23.861Z,8.98
2022-08-04T14:50:52.567Z,8.88
2022-08-04T14:53:23.100Z,10.68
2022-08-04T14:55:53.061Z,9.60
2022-08-04T14:58:36.577Z,8.73
2022-08-04T15:01:11.711Z,8.07
2022-08-04T15:03:50.133Z,9.43
2022-08-04T15:06:23.599Z,6.32
2022-08-04T15:08:52.921Z,6.28
2022-08-04T15:11:22.974Z,7.13
2022-08-04T15:13:51.999Z,8.30
2022-08-04T15:16:21.738Z,7.28
2022-08-04T15:18:50.092Z,6.35
2022-08-04T15:21:18.632Z,7.45
2022-08-04T15:23:47.363Z,5.22
2022-08-04T15:26:18.377Z,6.70
2022-08-04T15:28:51.350Z,7.07
2022-08-04T15:32:06.960Z,5.68
2022-08-04T15:34:24.471Z,7.93
2022-08-04T15:36:57.156Z,11.70
2022-08-04T15:39:35.997Z,13.93
2022-08-04T15:42:20.429Z,8.68
2022-08-04T15:45:04.586Z,4.82
2022-08-04T15:47:33.932Z,5.90
2022-08-04T15:50:09.425Z,7.15
2022-08-04T15:53:12.509Z,7.38
2022-08-04T15:55:43.891Z,7.13
2022-08-04T15:58:12.986Z,8.52
2022-08-04T16:01:17.978Z,10.38
2022-08-04T16:03:58.853Z,11.25
2022-08-04T16:06:47.330Z,9.82
2022-08-04T16:09:45.139Z,7.25
2022-08-04T16:12:55.601Z,8.23
2022-08-04T16:15:44.342Z,6.88
2022-08-04T16:18:26.625Z,5.22
2022-08-04T16:20:58.215Z,8.73
2022-08-04T16:24:07.397Z,5.65
2022-08-04T16:26:54.725Z,8.65
2022-08-04T16:29:34.113Z,8.40
2022-08-04T16:32:20.544Z,9.10
2022-08-04T16:34:54.259Z,10.20
2022-08-04T16:37:31.558Z,7.28
2022-08-04T16:40:35.754Z,6.78
2022-08-04T16:43:08.042Z,3.95
2022-08-04T16:45:52.698Z,6.88
2022-08-04T16:48:21.631Z,7.72
2022-08-04T16:51:04.787Z,7.32
2022-08-04T16:54:02.899Z,6.28
2022-08-04T16:56:33.229Z,5.28
2022-08-04T16:59:08.270Z,6.68
2022-08-04T17:01:36.241Z,7.60
2022-08-04T17:04:08.427Z,6.07
2022-08-04T17:06:38.494Z,7.75
2022-08-04T17:09:12.261Z,7.35
2022-08-04T17:11:40.654Z,8.43
2022-08-04T17:14:09.026Z,10.13
2022-08-04T17:16:39.716Z,16.27
2022-08-04T17:19:24.219Z,7.75
2022-08-04T17:22:02.977Z,8.73
2022-08-04T17:24:35.646Z,10.07
2022-08-04T17:28:19.822Z,10.18
2022-08-04T17:29:52.477Z,6.82
2022-08-04T17:32:23.101Z,7.40
2022-08-04T17:34:53.167Z,12.65
2022-08-04T17:37:52.019Z,24.90
2022-08-04T17:40:18.342Z,8.85
2022-08-04T17:43:02.995Z,7.63
2022-08-04T17:46:34.935Z,16.38
2022-08-04T17:49:07.808Z,8.30
2022-08-04T17:52:05.235Z,14.00
2022-08-04T17:54:36.980Z,7.28
2022-08-04T17:57:19.478Z,8.00
2022-08-04T17:59:56.512Z,6.57
2022-08-04T18:02:33.562Z,6.90
2022-08-04T18:05:06.081Z,11.55
2022-08-04T18:08:38.896Z,12.07
2022-08-04T18:10:44.594Z,16.88
2022-08-04T18:13:28.541Z,17.13
2022-08-04T18:16:04.032Z,5.97
2022-08-04T18:18:32.048Z,6.85
2022-08-04T18:21:03.302Z,5.93
2022-08-04T18:23:33.292Z,5.95
2022-08-04T18:26:02.164Z,11.05
2022-08-04T18:28:33.604Z,6.15
2022-08-04T18:31:02.271Z,6.82
2022-08-04T18:33:40.233Z,5.50
2022-08-04T18:36:33.133Z,7.30
2022-08-04T18:39:13.222Z,8.07
2022-08-04T18:42:01.417Z,9.13
2022-08-04T18:44:53.051Z,9.68
2022-08-04T18:47:23.441Z,6.93
2022-08-04T18:50:58.964Z,5.78
2022-08-04T18:52:42.082Z,6.00
2022-08-04T18:55:56.209Z,6.22
2022-08-04T18:58:05.989Z,5.93
2022-08-04T19:00:37.536Z,7.43
2022-08-04T19:03:13.440Z,6.72
2022-08-04T19:05:45.072Z,7.97
2022-08-04T19:08:33.887Z,9.60
2022-08-04T19:11:37.315Z,5.35
2022-08-04T19:13:57.732Z,8.02
2022-08-04T19:16:28.901Z,8.27
2022-08-04T19:18:57.010Z,4.20
2022-08-04T19:22:00.148Z,7.32
2022-08-04T19:24:31.967Z,5.30
2022-08-04T19:27:07.314Z,4.10
2022-08-04T19:29:41.106Z,6.13
2022-08-04T19:32:15.850Z,5.95
2022-08-04T19:34:45.675Z,4.95
2022-08-04T19:37:56.074Z,7.10
2022-08-04T19:40:06.356Z,8.25
2022-08-04T19:42:36.518Z,6.95
2022-08-04T19:45:05.232Z,11.23
2022-08-04T19:48:11.186Z,8.32
2022-08-04T19:50:23.743Z,9.40
2022-08-04T19:52:52.748Z,6.25
2022-08-04T19:55:22.405Z,6.15
2022-08-04T19:57:51.265Z,7.60
2022-08-04T20:00:32.832Z,6.25
2022-08-04T20:03:03.211Z,7.55
2022-08-04T20:05:54.585Z,7.57
2022-08-04T20:08:20.273Z,11.23
2022-08-04T20:10:51.936Z,17.10
2022-08-04T20:13:20.341Z,10.70
2022-08-04T20:15:57.519Z,15.07
2022-08-04T20:21:19.654Z,5.05
2022-08-04T20:23:52.603Z,6.57
2022-08-04T20:26:20.654Z,6.68
2022-08-04T20:28:51.785Z,5.70
2022-08-04T20:31:20.172Z,5.30
2022-08-04T20:33:53.844Z,5.63
2022-08-04T20:36:23.172Z,6.63
2022-08-04T20:38:52.989Z,5.10
2022-08-04T20:41:21.241Z,5.25
2022-08-04T20:43:49.898Z,5.93
2022-08-04T20:46:28.764Z,6.82
2022-08-04T20:48:59.015Z,5.60
2022-08-04T20:51:31.960Z,7.10
2022-08-04T20:54:01.834Z,3.85
2022-08-04T20:56:31.359Z,6.18
2022-08-04T20:58:59.853Z,6.70
2022-08-04T21:01:30.022Z,6.05
2022-08-04T21:04:28.232Z,6.47
2022-08-04T21:06:57.427Z,3.75
2022-08-04T21:09:26.498Z,5.10
2022-08-04T21:12:07.024Z,7.55
2022-08-04T21:14:36.052Z,2.72
2022-08-04T21:17:07.328Z,3.78
2022-08-04T21:19:37.885Z,3.17
2022-08-04T21:22:10.211Z,3.03
2022-08-04T21:24:38.715Z,7.05
2022-08-04T21:27:09.772Z,5.38
2022-08-04T21:29:38.374Z,3.03
2022-08-04T21:32:09.720Z,10.68
2022-08-04T21:34:40.114Z,5.40
2022-08-04T21:37:09.957Z,6.25
2022-08-04T21:39:50.344Z,3.42
2022-08-04T21:42:26.709Z,5.55
2022-08-04T21:44:58.245Z,3.65
2022-08-04T21:47:26.699Z,2.92
2022-08-04T21:53:03.405Z,4.28
2022-08-04T21:56:05.846Z,4.07
2022-08-04T21:58:19.332Z,5.60
2022-08-04T22:00:56.969Z,10.00
2022-08-04T22:03:51.986Z,7.22
2022-08-04T22:06:17.425Z,17.98
2022-08-04T22:11:48.790Z,5.70
2022-08-04T22:14:17.600Z,5.15
2022-08-04T22:16:56.513Z,8.75
2022-08-04T22:19:27.438Z,5.35
2022-08-04T22:22:12.661Z,5.45
2022-08-04T22:24:52.471Z,11.02
2022-08-04T22:27:34.239Z,19.52
2022-08-04T22:30:04.651Z,10.45
2022-08-04T22:32:32.919Z,7.22
2022-08-04T22:35:09.219Z,10.80
2022-08-04T22:38:06.568Z,5.35
2022-08-04T22:40:39.063Z,9.32
2022-08-04T22:43:31.195Z,6.35
2022-08-04T22:45:55.010Z,6.15
2022-08-04T22:48:23.816Z,5.50
2022-08-04T22:50:56.151Z,8.52
2022-08-04T22:53:25.620Z,8.55
2022-08-04T22:56:07.451Z,5.93
2022-08-04T22:58:44.812Z,9.18
2022-08-04T23:01:15.231Z,7.55
2022-08-04T23:03:54.941Z,8.27
2022-08-04T23:06:28.345Z,3.08
2022-08-04T23:08:59.452Z,5.15
2022-08-04T23:11:34.661Z,4.32
2022-08-04T23:14:06.748Z,6.05
2022-08-04T23:16:40.656Z,4.45
2022-08-04T23:19:15.134Z,7.22
2022-08-04T23:21:47.342Z,4.07
2022-08-04T23:24:17.339Z,5.63
2022-08-04T23:26:47.645Z,5.43
2022-08-04T23:29:15.725Z,5.05
2022-08-04T23:31:59.531Z,5.22
2022-08-04T23:34:29.110Z,4.95
2022-08-04T23:36:59.071Z,8.40
2022-08-04T23:40:04.226Z,6.57
2022-08-04T23:42:20.875Z,13.68
2022-08-04T23:44:50.017Z,4.85
2022-08-04T23:48:14.684Z,9.35
2022-08-04T23:50:07.248Z,7.43
2022-08-04T23:52:35.115Z,6.47
2022-08-04T23:55:07.433Z,7.22
2022-08-04T23:58:05.997Z,8.30
